createdAt,value
2022-10-04T00:03:13.007Z,1.48
2022-10-04T00:08:32.888Z,1.45
2022-10-04T00:13:38.167Z,1.42
2022-10-04T00:18:45.246Z,1.40
2022-10-04T00:23:47.894Z,1.25
2022-10-04T00:28:50.243Z,1.20
2022-10-04T00:34:03.668Z,1.20
2022-10-04T00:39:05.247Z,1.00
2022-10-04T00:44:16.552Z,1.60
2022-10-04T00:49:23.201Z,1.30
2022-10-04T00:54:54.550Z,1.40
2022-10-04T00:59:59.728Z,1.50
2022-10-04T01:05:21.563Z,1.63
2022-10-04T01:10:30.670Z,1.00
2022-10-04T01:15:43.160Z,1.55
2022-10-04T01:21:03.630Z,1.38
2022-10-04T01:26:26.559Z,1.40
2022-10-04T01:31:33.548Z,1.35
2022-10-04T01:36:36.967Z,1.65
2022-10-04T01:41:56.867Z,1.30
2022-10-04T01:47:03.154Z,1.67
2022-10-04T01:52:19.805Z,1.13
2022-10-04T01:57:30.993Z,1.77
2022-10-04T02:02:45.448Z,1.88
2022-10-04T02:07:48.957Z,1.50
2022-10-04T02:12:54.708Z,1.52
2022-10-04T02:17:57.322Z,1.58
2022-10-04T02:23:03.257Z,1.30
2022-10-04T02:28:10.787Z,1.40
2022-10-04T02:33:12.689Z,1.75
2022-10-04T02:38:28.510Z,1.40
2022-10-04T02:43:38.874Z,1.30
2022-10-04T02:48:45.661Z,1.65
2022-10-04T02:54:03.808Z,1.90
2022-10-04T02:59:07.066Z,1.73
2022-10-04T03:04:12.049Z,1.80
2022-10-04T03:09:14.881Z,1.50
2022-10-04T03:14:21.009Z,1.50
2022-10-04T03:19:25.002Z,1.53
2022-10-04T03:24:37.234Z,1.60
2022-10-04T03:29:43.256Z,2.05
2022-10-04T03:34:53.997Z,1.20
2022-10-04T03:39:57.095Z,1.75
2022-10-04T03:45:06.344Z,1.20
2022-10-04T03:50:25.328Z,1.42
2022-10-04T03:55:53.487Z,1.30
2022-10-04T04:01:11.279Z,1.40
2022-10-04T04:06:17.102Z,1.55
2022-10-04T04:11:23.691Z,1.45
2022-10-04T04:16:28.685Z,1.80
2022-10-04T04:21:31.795Z,1.80
2022-10-04T04:26:45.468Z,1.60
2022-10-04T04:31:58.795Z,1.92
2022-10-04T04:37:03.092Z,1.50
2022-10-04T04:42:15.350Z,1.98
2022-10-04T04:47:40.683Z,1.85
2022-10-04T04:52:50.228Z,2.25
2022-10-04T04:57:56.021Z,1.70
2022-10-04T05:03:00.839Z,2.00
2022-10-04T05:08:20.785Z,1.90
2022-10-04T05:13:28.810Z,1.90
2022-10-04T05:18:33.162Z,2.08
2022-10-04T05:23:35.444Z,2.10
2022-10-04T05:28:37.116Z,1.70
2022-10-04T05:33:46.748Z,2.17
2022-10-04T05:39:04.448Z,1.88
2022-10-04T05:44:26.111Z,2.00
2022-10-04T05:49:33.290Z,2.40
2022-10-04T05:54:35.838Z,3.17
2022-10-04T06:00:17.313Z,2.85
2022-10-04T06:05:44.971Z,1.77
2022-10-04T06:11:03.202Z,1.70
2022-10-04T06:16:23.709Z,1.92
2022-10-04T06:21:27.671Z,2.08
2022-10-04T06:26:38.400Z,2.33
2022-10-04T06:32:09.024Z,1.80
2022-10-04T06:37:25.573Z,2.20
2022-10-04T06:43:02.709Z,2.17
2022-10-04T06:48:25.187Z,1.85
2022-10-04T06:53:59.349Z,1.80
2022-10-04T06:59:33.357Z,1.50
2022-10-04T07:05:07.060Z,1.23
2022-10-04T07:10:19.438Z,1.85
2022-10-04T07:15:29.377Z,1.73
2022-10-04T07:20:35.699Z,1.52
2022-10-04T07:25:43.891Z,2.00
2022-10-04T07:31:03.749Z,1.60
2022-10-04T07:36:10.991Z,1.23
2022-10-04T07:41:36.172Z,1.75
2022-10-04T07:46:46.277Z,1.55
2022-10-04T07:52:20.666Z,2.00
2022-10-04T07:57:40.915Z,1.63
2022-10-04T08:02:48.606Z,1.35
2022-10-04T08:08:00.567Z,1.77
2022-10-04T08:13:22.294Z,1.70
2022-10-04T08:18:29.958Z,1.98
2022-10-04T08:23:53.321Z,2.13
2022-10-04T08:29:22.513Z,1.73
2022-10-04T08:34:44.884Z,1.75
2022-10-04T08:39:56.443Z,2.33
2022-10-04T08:45:45.998Z,2.47
2022-10-04T08:51:25.529Z,1.55
2022-10-04T08:56:52.753Z,1.80
2022-10-04T09:02:25.409Z,1.73
2022-10-04T09:08:14.875Z,1.52
2022-10-04T09:13:42.993Z,1.70
2022-10-04T09:18:57.206Z,1.80
2022-10-04T09:24:35.849Z,1.95
2022-10-04T09:29:52.493Z,1.30
2022-10-04T09:34:59.638Z,1.67
2022-10-04T09:40:42.417Z,1.30
2022-10-04T09:45:56.047Z,1.20
2022-10-04T09:51:07.946Z,0.90
2022-10-04T09:56:15.831Z,1.20
2022-10-04T10:02:05.360Z,1.77
2022-10-04T10:07:35.866Z,1.40
2022-10-04T10:13:14.046Z,1.13
2022-10-04T10:18:21.850Z,1.02
2022-10-04T10:23:38.280Z,1.10
2022-10-04T10:34:13.567Z,1.00
2022-10-04T10:39:36.886Z,1.13
2022-10-04T10:45:14.990Z,1.00
2022-10-04T10:51:00.226Z,1.00
2022-10-04T10:56:04.604Z,1.20
2022-10-04T11:01:36.279Z,1.20
2022-10-04T11:06:50.342Z,0.98
2022-10-04T11:12:10.768Z,0.88
2022-10-04T11:17:46.532Z,0.80
2022-10-04T11:23:31.708Z,1.30
2022-10-04T11:28:50.415Z,0.90
2022-10-04T11:34:17.769Z,1.05
2022-10-04T11:39:55.373Z,1.23
2022-10-04T11:45:17.194Z,0.60
2022-10-04T11:50:55.993Z,0.88
2022-10-04T11:56:22.282Z,0.88
2022-10-04T12:01:59.858Z,0.90
2022-10-04T12:07:22.741Z,0.80
2022-10-04T12:12:53.541Z,0.88
2022-10-04T12:18:19.755Z,0.85
2022-10-04T12:28:44.450Z,1.33
2022-10-04T12:34:24.010Z,0.75
2022-10-04T12:39:44.070Z,1.00
2022-10-04T12:44:45.520Z,0.70
2022-10-04T12:50:13.884Z,0.70
2022-10-04T12:55:47.537Z,0.80
2022-10-04T13:00:52.679Z,0.90
2022-10-04T13:06:09.567Z,0.70
2022-10-04T13:11:17.165Z,0.65
2022-10-04T13:22:54.941Z,0.75
2022-10-04T13:27:58.012Z,0.77
2022-10-04T13:33:30.060Z,0.80
2022-10-04T13:38:41.395Z,0.80
2022-10-04T13:43:42.849Z,0.88
2022-10-04T13:48:51.683Z,0.60
2022-10-04T13:54:50.276Z,0.80
2022-10-04T14:00:06.238Z,0.82
2022-10-04T14:05:32.883Z,0.70
2022-10-04T14:10:46.499Z,0.73
2022-10-04T14:16:19.148Z,0.40
2022-10-04T14:21:35.254Z,0.50
2022-10-04T14:27:06.968Z,0.60
2022-10-04T14:32:51.524Z,0.50
2022-10-04T14:38:14.523Z,0.60
2022-10-04T14:43:41.098Z,0.80
2022-10-04T14:49:11.559Z,0.70
2022-10-04T14:54:29.665Z,0.82
2022-10-04T14:59:44.683Z,2.17
2022-10-04T15:04:48.964Z,1.00
2022-10-04T15:09:59.802Z,0.88
2022-10-04T15:15:20.273Z,0.60
2022-10-04T15:20:57.071Z,0.60
2022-10-04T15:26:50.128Z,0.65
2022-10-04T15:32:19.333Z,0.68
2022-10-04T15:37:25.808Z,0.60
2022-10-04T15:42:33.347Z,0.80
2022-10-04T15:47:56.784Z,0.57
2022-10-04T15:53:20.005Z,0.60
2022-10-04T15:58:41.958Z,0.90
2022-10-04T16:04:10.273Z,0.98
2022-10-04T16:09:33.526Z,0.80
2022-10-04T16:14:57.012Z,1.00
2022-10-04T16:20:12.978Z,1.02
2022-10-04T16:25:38.447Z,1.10
2022-10-04T16:30:49.962Z,1.50
2022-10-04T16:36:16.423Z,1.30
2022-10-04T16:46:38.192Z,2.70
2022-10-04T16:52:14.131Z,2.10
2022-10-04T16:57:22.376Z,2.13
2022-10-04T17:02:46.107Z,2.70
2022-10-04T17:08:20.888Z,2.42
2022-10-04T17:13:50.774Z,2.20
2022-10-04T17:19:03.336Z,3.83
2022-10-04T17:24:17.001Z,3.85
2022-10-04T17:29:28.682Z,4.53
2022-10-04T17:34:48.999Z,5.63
2022-10-04T17:40:08.909Z,5.47
2022-10-04T17:45:29.333Z,5.53
2022-10-04T17:51:15.377Z,4.28
2022-10-04T17:56:45.720Z,3.55
2022-10-04T18:02:04.255Z,3.65
2022-10-04T18:07:12.130Z,4.07
2022-10-04T18:12:42.222Z,2.63
2022-10-04T18:17:50.946Z,2.63
2022-10-04T18:23:16.772Z,3.05
2022-10-04T18:28:22.785Z,2.73
2022-10-04T18:33:50.001Z,3.40
2022-10-04T18:39:14.380Z,3.90
2022-10-04T18:44:19.514Z,3.50
2022-10-04T18:49:26.986Z,3.22
2022-10-04T18:54:41.853Z,3.85
2022-10-04T19:00:29.548Z,4.82
2022-10-04T19:05:51.287Z,6.20
2022-10-04T19:10:59.651Z,7.18
2022-10-04T19:16:19.902Z,8.30
2022-10-04T19:21:39.656Z,9.60
2022-10-04T19:26:47.404Z,8.15
2022-10-04T19:32:04.291Z,5.68
2022-10-04T19:37:17.712Z,4.45
2022-10-04T19:42:33.931Z,3.92
2022-10-04T19:47:58.010Z,3.63
2022-10-04T19:53:07.634Z,2.13
2022-10-04T19:58:38.918Z,2.17
2022-10-04T20:03:40.795Z,2.60
2022-10-04T20:09:25.488Z,2.15
2022-10-04T20:14:26.904Z,1.85
2022-10-04T20:19:28.389Z,2.85
2022-10-04T20:24:50.348Z,2.70
2022-10-04T20:29:51.780Z,4.22
2022-10-04T20:34:55.315Z,4.35
2022-10-04T20:39:57.071Z,3.72
2022-10-04T20:45:10.645Z,3.33
2022-10-04T20:50:17.334Z,3.00
2022-10-04T20:55:27.229Z,3.05
2022-10-04T21:00:33.853Z,3.38
2022-10-04T21:05:35.915Z,2.80
2022-10-04T21:10:37.512Z,2.70
2022-10-04T21:15:55.531Z,2.72
2022-10-04T21:20:57.047Z,2.95
2022-10-04T21:26:18.916Z,3.03
2022-10-04T21:31:20.576Z,3.30
2022-10-04T21:36:22.193Z,3.03
2022-10-04T21:41:23.751Z,3.60
2022-10-04T21:46:25.419Z,3.40
2022-10-04T21:51:26.998Z,3.45
2022-10-04T21:56:28.604Z,3.33
2022-10-04T22:01:30.268Z,3.67
2022-10-04T22:06:31.841Z,3.83
2022-10-04T22:11:33.387Z,3.88
2022-10-04T22:16:35.034Z,3.70
2022-10-04T22:21:36.570Z,4.60
2022-10-04T22:26:38.091Z,4.80
2022-10-04T22:31:43.919Z,4.45
2022-10-04T22:36:48.416Z,4.60
2022-10-04T22:41:59.288Z,4.90
2022-10-04T22:47:02.075Z,6.38
2022-10-04T22:52:11.691Z,5.45
2022-10-04T22:57:15.407Z,5.10
2022-10-04T23:02:28.517Z,4.10
2022-10-04T23:07:32.783Z,4.50
2022-10-04T23:12:36.879Z,4.50
2022-10-04T23:17:39.499Z,3.42
2022-10-04T23:22:45.391Z,3.50
2022-10-04T23:27:48.105Z,4.40
2022-10-04T23:32:52.929Z,3.72
2022-10-04T23:37:54.831Z,3.83
2022-10-04T23:42:57.533Z,4.90
2022-10-04T23:48:01.289Z,4.15
2022-10-04T23:53:06.472Z,4.45
2022-10-04T23:58:17.690Z,3.72
